Friday, January 19, 2018, 10:35 PM EST
Back to Local

KMPV, Knapp State Airport

Location: Barre, VT, United States Lat: 44.2
Local Time: 10:35 PM EST ( 3:35 GMT) Lon: -72.567
Time Zone: US/Eastern Elev: 1164 ft

Show me the last for .
Show Decoded

2018-01-19 21:51 METAR KMPV 200251Z AUTO 18009KT 9SM OVC110 M04/M07 A2980 RMK AO2 SLP109
                 T10441067 58017 =
2018-01-19 20:51 METAR KMPV 200151Z AUTO 18010KT 9SM SCT110 M04/M07 A2982 RMK AO2 SLP118
                 T10441067 =
2018-01-19 20:13 METAR KMPV 200113Z AUTO 19008KT 10SM OVC031 M04/M07 A2983 RMK AO2 T10391067 =
2018-01-19 19:51 METAR KMPV 200051Z AUTO 18006KT 10SM OVC029 M04/M06 A2985 RMK AO2 SLP126
                 T10391061 =
2018-01-19 18:51 METAR KMPV 192351Z AUTO 20007KT 10SM OVC031 M04/M06 A2985 RMK AO2 SLP127
                 T10391061 11033 21044 56006 =
2018-01-19 18:36 METAR KMPV 192336Z AUTO 20008KT 10SM OVC030 M04/M07 A2985 RMK AO2 T10391067 =
2018-01-19 17:51 METAR KMPV 192251Z AUTO VRB05KT 10SM OVC028 M04/M07 A2985 RMK AO2 SLP128
                 T10391067 =
2018-01-19 16:51 METAR KMPV 192151Z AUTO 17004KT 9SM OVC025 M04/M06 A2985 RMK AO2 SLP126
                 T10391061 =
2018-01-19 15:51 METAR KMPV 192051Z AUTO 12006KT 7SM OVC027 M04/M06 A2987 RMK AO2 SLP133
                 T10391061 56004 =
2018-01-19 15:41 METAR KMPV 192041Z AUTO 09003KT 7SM OVC029 M04/M06 A2987 RMK AO2 T10391056 =
2018-01-19 14:51 METAR KMPV 191951Z AUTO 18003KT 8SM OVC034 M04/M06 A2987 RMK AO2 SLP133
                 T10391061 =
2018-01-19 14:00 METAR KMPV 191900Z AUTO 16005KT 7SM FEW027 OVC032 M04/M06 A2987 RMK AO2
                 T10391061 =
2018-01-19 13:51 METAR KMPV 191851Z AUTO 16005KT 7SM OVC029 M04/M06 A2987 RMK AO2 SLP134
                 T10391061 =
2018-01-19 12:51 METAR KMPV 191751Z AUTO 15005KT 7SM OVC016 M04/M06 A2988 RMK AO2 SLP137
                 T10441061 11039 21061 58013 =
2018-01-19 11:51 METAR KMPV 191651Z AUTO 18004KT 7SM BKN019 OVC024 M04/M07 A2989 RMK AO2 SLP142
                 T10391067 =
2018-01-19 10:51 METAR KMPV 191551Z AUTO 21005KT 8SM OVC025 M04/M07 A2992 RMK AO2 SLP150
                 T10441072 =
2018-01-19 09:51 METAR KMPV 191451Z AUTO 20005KT 9SM OVC024 M05/M07 A2992 RMK AO2 SLP151
                 T10501072 51004 =
2018-01-19 09:06 METAR KMPV 191406Z AUTO 18004KT 10SM OVC027 M05/M07 A2991 RMK AO2 T10501072 =
2018-01-19 08:51 METAR KMPV 191351Z AUTO 20003KT 10SM OVC030 M06/M07 A2992 RMK AO2 SLP151
                 T10561072 =
2018-01-19 08:13 METAR KMPV 191313Z AUTO 19004KT 10SM OVC029 M06/M08 A2991 RMK AO2 T10561078 =
2018-01-19 07:51 METAR KMPV 191251Z AUTO 21004KT 10SM OVC030 M06/M07 A2991 RMK AO2 SLP149
                 T10561072 =
2018-01-19 06:59 METAR KMPV 191159Z AUTO 00000KT 10SM SCT025 OVC037 M06/M07 A2990 RMK AO2
                 T10611072 =
2018-01-19 06:51 METAR KMPV 191151Z AUTO 00000KT 10SM BKN025 OVC037 M06/M07 A2990 RMK AO2 SLP147
                 60000 T10611072 11056 21072 50005 =
2018-01-19 06:49 METAR KMPV 191149Z AUTO 00000KT 10SM BKN025 OVC037 M06/M07 A2991 RMK AO2 =
2018-01-19 06:13 METAR KMPV 191113Z AUTO 00000KT 9SM SCT027 OVC037 M07/M07 A2990 RMK AO2
                 T10671072 =
2018-01-19 05:51 METAR KMPV 191051Z AUTO 00000KT 10SM BKN027 M07/M08 A2989 RMK AO2 SNE02 SLP144
                 P0000 T10721078 =
2018-01-19 05:42 METAR KMPV 191042Z AUTO 00000KT 10SM BKN026 M07/M07 A2989 RMK AO2 SNE02 P0000
                 T10671067 =
2018-01-19 05:24 METAR KMPV 191024Z AUTO 23003KT 9SM SCT023 SCT085 BKN110 M07/M07 A2989 RMK AO2
                 SNE02 P0000 T10671072 =
2018-01-19 04:51 METAR KMPV 190951Z AUTO 00000KT 6SM -SN BR OVC022 M06/M07 A2989 RMK AO2 SNB47
                 SLP142 P0000 T10611067 =
2018-01-19 03:51 METAR KMPV 190851Z AUTO 00000KT 10SM OVC021 M06/M07 A2988 RMK AO2 SLP138
                 T10611067 58006 =
2018-01-19 02:51 METAR KMPV 190751Z AUTO 00000KT 10SM OVC021 M06/M07 A2989 RMK AO2 SLP142
                 T10611067 =
2018-01-19 01:51 METAR KMPV 190651Z AUTO 00000KT 10SM OVC023 M06/M07 A2989 RMK AO2 SLP143
                 T10611072 =
2018-01-19 00:51 METAR KMPV 190551Z AUTO 17003KT 10SM OVC024 M06/M07 A2990 RMK AO2 SLP145
                 T10611072 11056 21067 58007 =
2018-01-18 23:51 METAR KMPV 190451Z AUTO 11004KT 10SM OVC029 M06/M07 A2990 RMK AO2 SLP147
                 T10611072 410501172 =
2018-01-18 22:51 METAR KMPV 190351Z AUTO 18003KT 10SM OVC031 M06/M07 A2992 RMK AO2 SLP153
                 T10611072 =

Support USWX by starting your Amazon purchase here.